createdAt,value
2023-03-07T00:00:42.203Z,95774.13
2023-03-07T00:03:13.244Z,95771.81
2023-03-07T00:05:43.778Z,95756.66
2023-03-07T00:08:12.822Z,95760.16
2023-03-07T00:10:44.621Z,95754.75
2023-03-07T00:13:13.080Z,95753.44
2023-03-07T00:15:42.604Z,95758.25
2023-03-07T00:18:10.946Z,95759.25
2023-03-07T00:20:39.589Z,95746.56
2023-03-07T00:23:09.324Z,95752.34
2023-03-07T00:25:38.036Z,95754.16
2023-03-07T00:28:06.791Z,95766.72
2023-03-07T00:30:35.077Z,95752.75
2023-03-07T00:33:06.877Z,95760.91
2023-03-07T00:35:35.324Z,95753.94
2023-03-07T00:38:04.034Z,95756.72
2023-03-07T00:40:34.963Z,95749.22
2023-03-07T00:43:03.332Z,95740.44
2023-03-07T00:45:31.631Z,95739.72
2023-03-07T00:48:00.253Z,95732.00
2023-03-07T00:50:30.004Z,95728.53
2023-03-07T00:52:58.837Z,95726.72
2023-03-07T00:55:27.161Z,95720.84
2023-03-07T00:57:57.179Z,95725.09
2023-03-07T01:00:25.664Z,95724.91
2023-03-07T01:02:55.354Z,95715.84
2023-03-07T01:05:24.888Z,95711.34
2023-03-07T01:07:53.609Z,95717.78
2023-03-07T01:10:22.031Z,95710.81
2023-03-07T01:12:50.330Z,95712.50
2023-03-07T01:15:20.269Z,95709.44
2023-03-07T01:17:48.649Z,95697.19
2023-03-07T01:20:17.729Z,95702.88
2023-03-07T01:22:47.034Z,95697.78
2023-03-07T01:25:15.435Z,95693.56
2023-03-07T01:27:44.301Z,95695.28
2023-03-07T01:30:13.889Z,95688.78
2023-03-07T01:32:44.027Z,95681.53
2023-03-07T01:35:15.448Z,95683.47
2023-03-07T01:37:43.807Z,95681.09
2023-03-07T01:40:14.061Z,95669.81
2023-03-07T01:42:42.930Z,95663.72
2023-03-07T01:46:18.567Z,95666.03
2023-03-07T01:49:01.027Z,95659.34
2023-03-07T01:51:32.896Z,95652.66
2023-03-07T01:54:07.418Z,95652.16
2023-03-07T01:56:38.939Z,95646.88
2023-03-07T01:59:09.523Z,95644.97
2023-03-07T02:01:39.160Z,95642.28
2023-03-07T02:04:17.155Z,95648.53
2023-03-07T02:06:46.034Z,95636.78
2023-03-07T02:09:21.784Z,95636.97
2023-03-07T02:11:51.516Z,95628.69
2023-03-07T02:14:20.353Z,95632.19
2023-03-07T02:16:49.910Z,95629.69
2023-03-07T02:19:38.682Z,95629.41
2023-03-07T02:22:13.379Z,95632.81
2023-03-07T02:24:53.541Z,95637.53
2023-03-07T02:27:26.913Z,95627.69
2023-03-07T02:29:55.579Z,95631.66
2023-03-07T02:32:24.161Z,95634.75
2023-03-07T02:34:52.541Z,95628.00
2023-03-07T02:37:30.251Z,95633.97
2023-03-07T02:40:06.093Z,95621.91
2023-03-07T02:42:42.593Z,95627.06
2023-03-07T02:45:18.769Z,95631.88
2023-03-07T02:47:48.308Z,95634.47
2023-03-07T02:50:19.562Z,95637.88
2023-03-07T02:52:52.397Z,95635.69
2023-03-07T02:55:21.070Z,95633.19
2023-03-07T02:58:04.225Z,95636.81
2023-03-07T03:00:33.158Z,95633.28
2023-03-07T03:03:01.616Z,95635.78
2023-03-07T03:05:30.138Z,95630.41
2023-03-07T03:07:58.589Z,95621.63
2023-03-07T03:10:26.932Z,95622.13
2023-03-07T03:12:55.602Z,95617.31
2023-03-07T03:15:26.414Z,95625.19
2023-03-07T03:17:55.890Z,95621.69
2023-03-07T03:20:26.039Z,95623.88
2023-03-07T03:22:54.878Z,95620.91
2023-03-07T03:25:25.197Z,95623.59
2023-03-07T03:27:54.033Z,95616.94
2023-03-07T03:30:23.305Z,95629.38
2023-03-07T03:32:53.477Z,95620.28
2023-03-07T03:35:21.978Z,95619.38
2023-03-07T03:37:50.602Z,95614.66
2023-03-07T03:40:19.557Z,95621.81
2023-03-07T03:42:48.444Z,95611.81
2023-03-07T03:45:19.545Z,95616.25
2023-03-07T03:47:50.526Z,95614.28
2023-03-07T03:50:20.543Z,95610.94
2023-03-07T03:52:48.910Z,95607.75
2023-03-07T03:55:17.563Z,95607.69
2023-03-07T03:57:46.282Z,95608.03
2023-03-07T04:00:16.211Z,95602.22
2023-03-07T04:02:45.360Z,95598.44
2023-03-07T04:05:19.329Z,95598.81
2023-03-07T04:07:47.696Z,95598.88
2023-03-07T04:10:19.811Z,95597.03
2023-03-07T04:12:48.203Z,95597.63
2023-03-07T04:15:17.576Z,95585.34
2023-03-07T04:17:45.984Z,95593.09
2023-03-07T04:20:17.697Z,95585.88
2023-03-07T04:22:49.038Z,95595.22
2023-03-07T04:25:18.528Z,95586.09
2023-03-07T04:27:47.221Z,95589.56
2023-03-07T04:30:15.731Z,95591.66
2023-03-07T04:32:44.348Z,95582.22
2023-03-07T04:35:12.659Z,95588.63
2023-03-07T04:37:41.056Z,95584.63
2023-03-07T04:40:12.906Z,95589.22
2023-03-07T04:42:41.756Z,95589.22
2023-03-07T04:45:11.679Z,95585.09
2023-03-07T04:47:40.559Z,95589.31
2023-03-07T04:50:10.252Z,95583.28
2023-03-07T04:52:39.949Z,95589.53
2023-03-07T04:55:11.063Z,95580.75
2023-03-07T04:57:39.603Z,95591.06
2023-03-07T05:00:10.239Z,95588.94
2023-03-07T05:02:39.596Z,95589.03
2023-03-07T05:05:12.340Z,95592.66
2023-03-07T05:07:41.244Z,95586.25
2023-03-07T05:10:13.243Z,95588.94
2023-03-07T05:12:41.907Z,95589.47
2023-03-07T05:15:12.950Z,95585.84
2023-03-07T05:17:41.586Z,95574.34
2023-03-07T05:20:13.138Z,95579.84
2023-03-07T05:22:42.841Z,95579.47
2023-03-07T05:25:12.932Z,95578.09
2023-03-07T05:27:42.705Z,95576.09
2023-03-07T05:30:13.707Z,95570.69
2023-03-07T05:32:42.181Z,95582.91
2023-03-07T05:35:13.980Z,95582.78
2023-03-07T05:37:43.331Z,95585.97
2023-03-07T05:40:15.355Z,95583.66
2023-03-07T05:42:47.544Z,95577.31
2023-03-07T05:45:16.402Z,95585.91
2023-03-07T05:47:44.938Z,95580.53
2023-03-07T05:50:15.546Z,95573.25
2023-03-07T05:52:44.421Z,95577.44
2023-03-07T05:55:14.371Z,95575.53
2023-03-07T05:57:43.011Z,95568.78
2023-03-07T06:00:13.688Z,95572.06
2023-03-07T06:02:50.937Z,95574.47
2023-03-07T06:05:19.426Z,95570.56
2023-03-07T06:07:48.655Z,95569.75
2023-03-07T06:10:19.069Z,95574.91
2023-03-07T06:12:52.225Z,95575.72
2023-03-07T06:15:23.194Z,95572.44
2023-03-07T06:17:56.193Z,95574.03
2023-03-07T06:20:24.862Z,95572.06
2023-03-07T06:22:55.864Z,95575.06
2023-03-07T06:25:25.852Z,95560.56
2023-03-07T06:27:59.689Z,95571.03
2023-03-07T06:30:29.243Z,95567.28
2023-03-07T06:32:57.679Z,95573.06
2023-03-07T06:35:29.781Z,95568.56
2023-03-07T06:37:58.113Z,95567.38
2023-03-07T06:40:28.247Z,95568.28
2023-03-07T06:42:56.902Z,95557.91
2023-03-07T06:45:25.345Z,95563.31
2023-03-07T06:47:53.714Z,95569.28
2023-03-07T06:50:33.431Z,95571.56
2023-03-07T06:53:05.614Z,95577.56
2023-03-07T06:55:35.494Z,95575.25
2023-03-07T06:58:03.909Z,95571.25
2023-03-07T07:00:32.290Z,95579.03
2023-03-07T07:03:00.793Z,95573.06
2023-03-07T07:05:29.097Z,95580.25
2023-03-07T07:07:57.523Z,95570.25
2023-03-07T07:10:26.088Z,95570.63
2023-03-07T07:12:57.063Z,95570.84
2023-03-07T07:15:27.520Z,95577.81
2023-03-07T07:17:56.028Z,95576.41
2023-03-07T07:20:25.444Z,95569.59
2023-03-07T07:22:54.744Z,95569.81
2023-03-07T07:25:23.323Z,95564.78
2023-03-07T07:27:51.716Z,95568.88
2023-03-07T07:30:21.510Z,95560.78
2023-03-07T07:32:50.739Z,95560.03
2023-03-07T07:35:20.384Z,95570.53
2023-03-07T07:37:48.919Z,95569.91
2023-03-07T07:40:17.498Z,95567.28
2023-03-07T07:42:54.359Z,95570.59
2023-03-07T07:45:45.825Z,95563.19
2023-03-07T07:48:17.991Z,95562.16
2023-03-07T07:50:47.616Z,95561.53
2023-03-07T07:53:17.948Z,95563.06
2023-03-07T07:55:48.950Z,95557.50
2023-03-07T07:58:18.231Z,95561.72
2023-03-07T08:00:48.739Z,95554.88
2023-03-07T08:03:17.094Z,95553.78
2023-03-07T08:05:51.300Z,95559.38
2023-03-07T08:08:21.108Z,95553.53
2023-03-07T08:10:49.918Z,95553.03
2023-03-07T08:13:19.061Z,95548.84
2023-03-07T08:15:48.954Z,95559.63
2023-03-07T08:18:17.299Z,95554.81
2023-03-07T08:20:45.729Z,95563.69
2023-03-07T08:23:14.231Z,95552.03
2023-03-07T08:25:42.558Z,95558.13
2023-03-07T08:28:15.022Z,95554.34
2023-03-07T08:30:43.256Z,95558.81
2023-03-07T08:33:12.891Z,95555.44
2023-03-07T08:35:41.362Z,95554.56
2023-03-07T08:38:10.306Z,95547.44
2023-03-07T08:40:38.692Z,95547.59
2023-03-07T08:43:06.940Z,95550.69
2023-03-07T08:45:35.315Z,95557.31
2023-03-07T08:48:03.565Z,95551.63
2023-03-07T08:50:33.322Z,95537.63
2023-03-07T08:53:01.600Z,95546.88
2023-03-07T08:55:30.015Z,95545.28
2023-03-07T08:57:58.308Z,95551.84
2023-03-07T09:00:26.899Z,95554.22
2023-03-07T09:02:58.446Z,95542.81
2023-03-07T09:05:27.434Z,95541.56
2023-03-07T09:07:58.306Z,95541.59
2023-03-07T09:10:27.577Z,95546.88
2023-03-07T09:12:56.988Z,95527.91
2023-03-07T09:15:25.610Z,95526.97
2023-03-07T09:17:54.504Z,95529.22
2023-03-07T09:20:22.831Z,95530.31
2023-03-07T09:22:51.795Z,95527.28
2023-03-07T09:25:22.221Z,95523.13
2023-03-07T09:27:52.037Z,95520.91
2023-03-07T09:30:20.625Z,95519.63
2023-03-07T09:32:50.259Z,95525.38
2023-03-07T09:35:19.452Z,95508.34
2023-03-07T09:37:47.761Z,95504.31
2023-03-07T09:40:24.473Z,95508.63
2023-03-07T09:43:03.508Z,95499.19
2023-03-07T09:45:48.498Z,95499.19
2023-03-07T09:49:00.788Z,95490.59
2023-03-07T09:51:40.133Z,95480.50
2023-03-07T09:54:16.272Z,95479.66
2023-03-07T09:56:50.797Z,95472.34
2023-03-07T09:59:24.393Z,95462.69
2023-03-07T10:02:02.289Z,95467.69
2023-03-07T10:04:44.442Z,95462.72
2023-03-07T10:07:17.686Z,95466.47
2023-03-07T10:09:47.206Z,95465.75
2023-03-07T10:12:44.342Z,95447.63
2023-03-07T10:15:46.987Z,95451.88
2023-03-07T10:18:29.557Z,95451.28
2023-03-07T10:21:13.935Z,95442.38
2023-03-07T10:24:23.958Z,95446.78
2023-03-07T10:27:02.160Z,95431.19
2023-03-07T10:29:42.904Z,95430.47
2023-03-07T10:32:35.885Z,95427.94
2023-03-07T10:35:20.863Z,95427.41
2023-03-07T10:37:53.666Z,95420.44
2023-03-07T10:40:28.030Z,95412.78
2023-03-07T10:42:57.907Z,95409.47
2023-03-07T10:45:32.139Z,95417.03
2023-03-07T10:48:08.114Z,95410.91
2023-03-07T10:50:50.212Z,95411.44
2023-03-07T10:53:26.868Z,95410.47
2023-03-07T10:56:14.799Z,95397.69
2023-03-07T10:59:03.064Z,95406.38
2023-03-07T11:01:35.818Z,95407.25
2023-03-07T11:04:07.359Z,95391.75
2023-03-07T11:06:40.607Z,95392.97
2023-03-07T11:09:24.795Z,95389.44
2023-03-07T11:11:57.928Z,95374.06
2023-03-07T11:14:28.808Z,95370.69
2023-03-07T11:17:01.033Z,95367.59
2023-03-07T11:19:43.608Z,95367.97
2023-03-07T11:22:29.303Z,95370.59
2023-03-07T11:25:15.788Z,95356.59
2023-03-07T11:27:52.798Z,95370.97
2023-03-07T11:30:29.972Z,95370.06
2023-03-07T11:33:11.609Z,95358.75
2023-03-07T11:35:58.786Z,95345.00
2023-03-07T11:38:52.760Z,95348.94
2023-03-07T11:41:28.297Z,95343.69
2023-03-07T11:44:32.969Z,95338.38
2023-03-07T11:47:24.037Z,95330.09
2023-03-07T11:50:13.948Z,95327.38
2023-03-07T11:53:29.442Z,95318.72
2023-03-07T11:56:19.201Z,95315.16
2023-03-07T11:59:24.089Z,95310.72
2023-03-07T12:01:58.436Z,95308.47
2023-03-07T12:04:54.445Z,95304.06
2023-03-07T12:07:59.006Z,95301.22
2023-03-07T12:10:52.095Z,95299.97
2023-03-07T12:13:41.761Z,95296.25
2023-03-07T12:16:27.627Z,95289.97
2023-03-07T12:19:38.340Z,95298.16
2023-03-07T12:22:28.557Z,95293.41
2023-03-07T12:25:29.309Z,95286.94
2023-03-07T12:28:10.277Z,95287.28
2023-03-07T12:30:52.889Z,95286.47
2023-03-07T12:33:30.742Z,95299.09
2023-03-07T12:36:07.045Z,95297.63
2023-03-07T12:38:43.040Z,95294.78
2023-03-07T12:41:33.070Z,95291.09
2023-03-07T12:44:08.829Z,95285.09
2023-03-07T12:46:48.755Z,95283.09
2023-03-07T12:49:25.897Z,95272.25
2023-03-07T12:52:01.718Z,95268.31
2023-03-07T12:54:35.301Z,95265.22
2023-03-07T12:57:12.268Z,95271.44
2023-03-07T12:59:45.087Z,95271.75
2023-03-07T13:02:21.377Z,95266.22
2023-03-07T13:04:49.794Z,95277.19
2023-03-07T13:07:25.579Z,95274.81
2023-03-07T13:09:58.207Z,95264.28
2023-03-07T13:12:43.948Z,95273.69
2023-03-07T13:16:05.600Z,95266.66
2023-03-07T13:18:34.284Z,95269.63
2023-03-07T13:21:33.662Z,95274.63
2023-03-07T13:24:35.980Z,95259.34
2023-03-07T13:27:14.374Z,95258.88
2023-03-07T13:30:24.211Z,95257.09
2023-03-07T13:33:11.514Z,95251.06
2023-03-07T13:35:58.805Z,95256.84
2023-03-07T13:38:35.437Z,95245.78
2023-03-07T13:41:05.059Z,95241.06
2023-03-07T13:44:01.728Z,95239.88
2023-03-07T13:47:01.475Z,95236.16
2023-03-07T13:49:47.703Z,95225.25
2023-03-07T13:52:45.782Z,95235.81
2023-03-07T13:55:39.570Z,95225.72
2023-03-07T13:58:25.103Z,95214.25
2023-03-07T14:00:59.120Z,95213.94
2023-03-07T14:03:34.388Z,95217.41
2023-03-07T14:06:12.668Z,95201.81
2023-03-07T14:08:41.334Z,95209.75
2023-03-07T14:11:23.049Z,95205.84
2023-03-07T14:14:39.885Z,95200.22
2023-03-07T14:17:27.432Z,95204.09
2023-03-07T14:20:11.501Z,95210.56
2023-03-07T14:22:59.857Z,95203.16
2023-03-07T14:25:32.498Z,95208.31
2023-03-07T14:28:05.633Z,95212.22
2023-03-07T14:30:35.565Z,95205.09
2023-03-07T14:33:04.257Z,95205.59
2023-03-07T14:35:43.871Z,95219.44
2023-03-07T14:38:22.120Z,95199.75
2023-03-07T14:41:18.520Z,95212.41
2023-03-07T14:44:05.158Z,95213.91
2023-03-07T14:46:49.942Z,95217.91
2023-03-07T14:49:36.359Z,95210.72
2023-03-07T14:52:06.809Z,95208.66
2023-03-07T14:54:38.524Z,95211.91
2023-03-07T14:57:19.368Z,95210.13
2023-03-07T15:00:15.538Z,95222.53
2023-03-07T15:02:49.321Z,95217.59
2023-03-07T15:05:21.082Z,95213.56
2023-03-07T15:07:51.418Z,95222.97
2023-03-07T15:10:24.098Z,95229.63
2023-03-07T15:12:56.160Z,95224.53
2023-03-07T15:15:37.356Z,95220.69
2023-03-07T15:18:16.900Z,95234.47
2023-03-07T15:20:46.310Z,95230.66
2023-03-07T15:23:24.057Z,95226.78
2023-03-07T15:25:56.938Z,95229.06
2023-03-07T15:28:30.492Z,95229.91
2023-03-07T15:30:59.542Z,95227.06
2023-03-07T15:33:30.790Z,95219.94
2023-03-07T15:36:18.353Z,95221.13
2023-03-07T15:38:50.300Z,95226.91
2023-03-07T15:41:33.343Z,95230.19
2023-03-07T15:44:08.505Z,95237.34
2023-03-07T15:46:41.450Z,95236.59
2023-03-07T15:49:31.952Z,95239.00
2023-03-07T15:52:01.576Z,95238.06
2023-03-07T15:54:40.789Z,95244.53
2023-03-07T15:57:19.298Z,95243.09
2023-03-07T15:59:56.626Z,95242.97
2023-03-07T16:02:45.197Z,95245.59
2023-03-07T16:05:38.691Z,95248.75
2023-03-07T16:08:14.478Z,95240.59
2023-03-07T16:10:52.207Z,95229.75
2023-03-07T16:13:24.204Z,95232.47
2023-03-07T16:16:06.845Z,95238.78
2023-03-07T16:18:36.114Z,95238.78
2023-03-07T16:21:04.669Z,95246.25
2023-03-07T16:23:34.103Z,95242.59
2023-03-07T16:26:09.102Z,95252.22
2023-03-07T16:28:37.485Z,95255.28
2023-03-07T16:31:12.339Z,95254.53
2023-03-07T16:33:40.828Z,95260.06
2023-03-07T16:36:11.723Z,95256.66
2023-03-07T16:38:40.308Z,95256.94
2023-03-07T16:41:19.047Z,95263.16
2023-03-07T16:43:53.230Z,95256.69
2023-03-07T16:46:24.483Z,95258.06
2023-03-07T16:48:52.871Z,95258.91
2023-03-07T16:51:25.645Z,95258.50
2023-03-07T16:53:57.099Z,95266.19
2023-03-07T16:56:32.480Z,95268.03
2023-03-07T16:59:02.469Z,95265.03
2023-03-07T17:01:30.829Z,95264.59
2023-03-07T17:03:59.142Z,95268.44
2023-03-07T17:06:38.503Z,95266.91
2023-03-07T17:09:09.434Z,95281.41
2023-03-07T17:11:41.491Z,95282.97
2023-03-07T17:14:17.446Z,95288.88
2023-03-07T17:16:50.004Z,95291.28
2023-03-07T17:19:28.086Z,95303.69
2023-03-07T17:21:58.698Z,95314.22
2023-03-07T17:24:29.545Z,95322.47
2023-03-07T17:27:03.595Z,95317.72
2023-03-07T17:29:39.324Z,95314.38
2023-03-07T17:32:08.347Z,95323.28
2023-03-07T17:34:40.439Z,95320.75
2023-03-07T17:37:09.255Z,95324.56
2023-03-07T17:39:38.588Z,95326.47
2023-03-07T17:42:08.620Z,95323.09
2023-03-07T17:44:36.985Z,95329.75
2023-03-07T17:47:05.653Z,95330.06
2023-03-07T17:49:35.660Z,95330.84
2023-03-07T17:52:08.892Z,95328.63
2023-03-07T17:54:37.340Z,95330.69
2023-03-07T17:57:07.898Z,95337.34
2023-03-07T17:59:36.395Z,95341.13
2023-03-07T18:02:08.708Z,95340.66
2023-03-07T18:04:37.413Z,95343.50
2023-03-07T18:07:06.882Z,95335.56
2023-03-07T18:09:35.948Z,95331.88
2023-03-07T18:12:04.790Z,95339.19
2023-03-07T18:14:34.447Z,95338.88
2023-03-07T18:17:02.860Z,95334.56
2023-03-07T18:19:31.210Z,95339.50
2023-03-07T18:21:59.867Z,95340.59
2023-03-07T18:24:30.367Z,95329.19
2023-03-07T18:27:00.197Z,95328.38
2023-03-07T18:29:29.468Z,95331.69
2023-03-07T18:31:59.198Z,95331.16
2023-03-07T18:34:27.782Z,95339.28
2023-03-07T18:36:56.170Z,95342.94
2023-03-07T18:39:25.581Z,95345.09
2023-03-07T18:41:54.294Z,95353.72
2023-03-07T18:44:22.585Z,95354.13
2023-03-07T18:46:51.298Z,95352.16
2023-03-07T18:49:20.970Z,95356.09
2023-03-07T18:51:49.422Z,95358.50
2023-03-07T18:54:17.737Z,95352.47
2023-03-07T18:56:47.675Z,95370.84
2023-03-07T18:59:16.234Z,95379.03
2023-03-07T19:01:46.124Z,95387.91
2023-03-07T19:04:14.467Z,95384.69
2023-03-07T19:06:47.602Z,95384.56
2023-03-07T19:09:18.554Z,95385.47
2023-03-07T19:11:48.209Z,95396.44
2023-03-07T19:14:16.755Z,95397.31
2023-03-07T19:16:45.593Z,95390.41
2023-03-07T19:19:14.159Z,95395.66
2023-03-07T19:21:43.949Z,95384.38
2023-03-07T19:24:13.315Z,95389.22
2023-03-07T19:26:43.300Z,95399.31
2023-03-07T19:29:13.067Z,95392.66
2023-03-07T19:31:43.894Z,95389.78
2023-03-07T19:34:12.576Z,95401.75
2023-03-07T19:36:43.722Z,95406.56
2023-03-07T19:39:20.126Z,95410.34
2023-03-07T19:41:49.118Z,95412.06
2023-03-07T19:44:19.658Z,95402.19
2023-03-07T19:46:48.106Z,95411.47
2023-03-07T19:49:17.594Z,95410.44
2023-03-07T19:51:47.283Z,95415.81
2023-03-07T19:54:16.414Z,95415.41
2023-03-07T19:56:45.692Z,95414.69
2023-03-07T19:59:14.676Z,95414.41
2023-03-07T20:01:43.150Z,95416.47
2023-03-07T20:04:12.705Z,95411.78
2023-03-07T20:06:42.432Z,95414.44
2023-03-07T20:09:14.358Z,95412.03
2023-03-07T20:11:43.913Z,95425.03
2023-03-07T20:14:14.277Z,95416.22
2023-03-07T20:16:42.949Z,95410.84
2023-03-07T20:19:11.644Z,95416.97
2023-03-07T20:21:42.433Z,95419.06
2023-03-07T20:24:12.830Z,95421.88
2023-03-07T20:26:41.171Z,95414.94
2023-03-07T20:29:11.008Z,95416.06
2023-03-07T20:31:40.935Z,95408.47
2023-03-07T20:34:09.579Z,95407.78
2023-03-07T20:36:39.430Z,95411.41
2023-03-07T20:39:14.337Z,95399.25
2023-03-07T20:41:44.834Z,95400.94
2023-03-07T20:44:16.166Z,95409.09
2023-03-07T20:46:44.668Z,95398.44
2023-03-07T20:49:15.985Z,95405.81
2023-03-07T20:51:45.605Z,95401.81
2023-03-07T20:54:17.855Z,95394.66
2023-03-07T20:56:48.739Z,95409.47
2023-03-07T20:59:20.391Z,95406.38
2023-03-07T21:01:49.454Z,95401.97
2023-03-07T21:04:20.666Z,95405.34
2023-03-07T21:06:50.379Z,95406.63
2023-03-07T21:09:20.686Z,95408.28
2023-03-07T21:11:50.942Z,95400.44
2023-03-07T21:14:21.127Z,95407.25
2023-03-07T21:16:49.556Z,95412.88
2023-03-07T21:19:18.267Z,95405.63
2023-03-07T21:21:47.073Z,95428.91
2023-03-07T21:24:16.300Z,95432.19
2023-03-07T21:26:47.163Z,95440.88
2023-03-07T21:29:16.119Z,95443.00
2023-03-07T21:31:44.596Z,95439.41
2023-03-07T21:34:15.139Z,95440.13
2023-03-07T21:36:43.942Z,95445.03
2023-03-07T21:39:12.756Z,95445.03
2023-03-07T21:41:41.601Z,95447.94
2023-03-07T21:44:12.268Z,95451.84
2023-03-07T21:46:40.626Z,95454.41
2023-03-07T21:49:09.049Z,95451.91
2023-03-07T21:51:37.497Z,95448.31
2023-03-07T21:54:06.363Z,95455.59
2023-03-07T21:56:34.843Z,95466.38
2023-03-07T21:59:03.260Z,95462.19
2023-03-07T22:01:33.007Z,95462.69
2023-03-07T22:04:01.478Z,95464.41
2023-03-07T22:06:30.376Z,95463.28
2023-03-07T22:09:00.885Z,95458.78
2023-03-07T22:11:29.251Z,95464.59
2023-03-07T22:13:58.353Z,95469.88
2023-03-07T22:16:26.707Z,95470.38
2023-03-07T22:18:58.157Z,95467.88
2023-03-07T22:21:27.778Z,95464.88
2023-03-07T22:24:00.642Z,95462.97
2023-03-07T22:26:30.838Z,95470.03
2023-03-07T22:29:01.120Z,95468.53
2023-03-07T22:31:29.541Z,95473.50
2023-03-07T22:34:00.795Z,95486.03
2023-03-07T22:36:29.660Z,95487.22
2023-03-07T22:38:58.427Z,95492.22
2023-03-07T22:41:27.433Z,95487.44
2023-03-07T22:43:55.956Z,95497.31
2023-03-07T22:46:24.484Z,95498.63
2023-03-07T22:48:54.701Z,95498.25
2023-03-07T22:51:26.660Z,95500.16
2023-03-07T22:53:55.710Z,95496.38
2023-03-07T22:56:26.595Z,95498.06
2023-03-07T22:58:55.276Z,95493.06
2023-03-07T23:01:26.705Z,95503.44
2023-03-07T23:03:58.056Z,95496.63
2023-03-07T23:06:31.128Z,95504.97
2023-03-07T23:09:00.641Z,95502.03
2023-03-07T23:11:31.361Z,95505.63
2023-03-07T23:14:00.372Z,95500.59
2023-03-07T23:16:31.792Z,95491.41
2023-03-07T23:19:01.253Z,95498.28
2023-03-07T23:21:33.395Z,95498.88
2023-03-07T23:24:04.107Z,95500.47
2023-03-07T23:26:35.033Z,95494.59
2023-03-07T23:29:03.699Z,95505.69
2023-03-07T23:31:37.418Z,95507.94
2023-03-07T23:34:08.757Z,95506.84
2023-03-07T23:36:38.689Z,95512.06
2023-03-07T23:39:08.327Z,95523.63
2023-03-07T23:41:37.043Z,95519.84
2023-03-07T23:44:06.316Z,95523.03
2023-03-07T23:46:35.145Z,95525.53
2023-03-07T23:49:03.601Z,95528.84
2023-03-07T23:51:32.205Z,95528.03
2023-03-07T23:54:02.034Z,95529.63
2023-03-07T23:56:30.417Z,95533.41
2023-03-07T23:58:58.802Z,95541.84
